SDM2212 URMM-USSS
Flight info
| Callsign | SDM2212 |
|---|---|
| Flight time | 2h 14m |
| Altitude | 37000 |
| Route | LARIN5M LARIN G481 NIRGA R807 UROBO P135 LOMBI LOMBI6R |
| Aircraft | B77W/H-SDE1E2E3FGHIJ2J3J4J5M1RWXY/LB1D1 |
Departure
| Time | 2026-04-20 16:52 |
|---|---|
| Airport | Mineralnye Vody Airport (URMM) |
Arrival
| Time | 2026-04-20 19:07 |
|---|---|
| Airport | Koltsovo Airport (USSS) |
| Time | Latitude | Longitude | Altitude | Speed | Heading |
|---|---|---|---|---|---|
| 2026-04-20 16:08 | 44.21915 | 43.08655 | 1056 ft | 0 kts | 212° |
| 2026-04-20 16:41 | 44.21916 | 43.08656 | 1056 ft | 1 kts | 211° |
| 2026-04-20 16:41 | 44.21931 | 43.08668 | 1056 ft | 3 kts | 204° |
| 2026-04-20 16:41 | 44.21950 | 43.08678 | 1056 ft | 3 kts | 193° |
| 2026-04-20 16:41 | 44.21970 | 43.08682 | 1056 ft | 3 kts | 179° |
| 2026-04-20 16:42 | 44.21989 | 43.08680 | 1056 ft | 3 kts | 159° |
| 2026-04-20 16:42 | 44.22005 | 43.08668 | 1056 ft | 2 kts | 126° |
| 2026-04-20 16:42 | 44.22008 | 43.08662 | 1056 ft | 0 kts | 118° |
| 2026-04-20 16:46 | 44.22007 | 43.08664 | 1056 ft | 1 kts | 118° |
| 2026-04-20 16:46 | 44.21987 | 43.08712 | 1056 ft | 12 kts | 121° |
| 2026-04-20 16:46 | 44.21943 | 43.08811 | 1056 ft | 12 kts | 122° |
| 2026-04-20 16:47 | 44.21898 | 43.08911 | 1056 ft | 12 kts | 122° |
| 2026-04-20 16:47 | 44.21853 | 43.09010 | 1056 ft | 12 kts | 123° |
| 2026-04-20 16:47 | 44.21803 | 43.09104 | 1056 ft | 12 kts | 123° |
| 2026-04-20 16:47 | 44.21758 | 43.09203 | 1056 ft | 12 kts | 122° |
| 2026-04-20 16:48 | 44.21709 | 43.09298 | 1056 ft | 12 kts | 131° |
| 2026-04-20 16:48 | 44.21655 | 43.09389 | 1056 ft | 12 kts | 126° |
| 2026-04-20 16:48 | 44.21610 | 43.09488 | 1056 ft | 12 kts | 122° |
| 2026-04-20 16:48 | 44.21565 | 43.09588 | 1056 ft | 12 kts | 122° |
| 2026-04-20 16:49 | 44.21522 | 43.09685 | 1056 ft | 12 kts | 120° |
| 2026-04-20 16:49 | 44.21517 | 43.09799 | 1056 ft | 12 kts | 77° |
| 2026-04-20 16:49 | 44.21536 | 43.09912 | 1056 ft | 12 kts | 77° |
| 2026-04-20 16:49 | 44.21555 | 43.10026 | 1056 ft | 12 kts | 77° |
| 2026-04-20 16:50 | 44.21573 | 43.10134 | 1056 ft | 10 kts | 77° |
| 2026-04-20 16:50 | 44.21604 | 43.10216 | 1058 ft | 10 kts | 44° |
| 2026-04-20 16:50 | 44.21664 | 43.10274 | 1055 ft | 11 kts | 33° |
| 2026-04-20 16:50 | 44.21722 | 43.10322 | 1056 ft | 7 kts | 24° |
| 2026-04-20 16:51 | 44.21768 | 43.10300 | 1057 ft | 7 kts | 313° |
| 2026-04-20 16:51 | 44.21787 | 43.10262 | 1057 ft | 0 kts | 303° |
| 2026-04-20 16:51 | 44.21798 | 43.10238 | 1057 ft | 14 kts | 303° |
| 2026-04-20 16:52 | 44.21947 | 43.09913 | 1061 ft | 78 kts | 302° |
| 2026-04-20 16:52 | 44.22397 | 43.08922 | 1057 ft | 160 kts | 302° |
| 2026-04-20 16:52 | 44.23074 | 43.07435 | 1509 ft | 176 kts | 302° |
| 2026-04-20 16:52 | 44.23676 | 43.06068 | 2763 ft | 164 kts | 301° |
| 2026-04-20 16:53 | 44.24287 | 43.04658 | 3366 ft | 176 kts | 301° |
| 2026-04-20 16:53 | 44.24968 | 43.03138 | 3731 ft | 197 kts | 302° |
| 2026-04-20 16:53 | 44.25757 | 43.01418 | 3975 ft | 225 kts | 302° |
| 2026-04-20 16:53 | 44.26634 | 42.99499 | 4460 ft | 242 kts | 302° |
| 2026-04-20 16:54 | 44.27556 | 42.97472 | 5142 ft | 252 kts | 302° |
| 2026-04-20 16:54 | 44.28505 | 42.95379 | 5975 ft | 257 kts | 302° |
| 2026-04-20 16:54 | 44.29468 | 42.93258 | 6869 ft | 259 kts | 303° |
| 2026-04-20 16:54 | 44.30689 | 42.91408 | 7535 ft | 266 kts | 327° |
| 2026-04-20 16:55 | 44.32459 | 42.90602 | 8342 ft | 274 kts | 354° |
| 2026-04-20 16:55 | 44.34358 | 42.90897 | 9129 ft | 279 kts | 12° |
| 2026-04-20 16:55 | 44.36249 | 42.91677 | 9814 ft | 287 kts | 14° |
| 2026-04-20 16:55 | 44.38184 | 42.92518 | 10472 ft | 298 kts | 14° |
| 2026-04-20 16:56 | 44.40239 | 42.93415 | 10813 ft | 321 kts | 14° |
| 2026-04-20 16:56 | 44.42410 | 42.94359 | 11493 ft | 332 kts | 14° |
| 2026-04-20 16:56 | 44.44614 | 42.95315 | 12295 ft | 340 kts | 14° |
| 2026-04-20 16:56 | 44.46899 | 42.96298 | 13225 ft | 346 kts | 14° |
| 2026-04-20 16:57 | 44.49220 | 42.97292 | 14182 ft | 350 kts | 14° |
| 2026-04-20 16:57 | 44.51573 | 42.98298 | 15092 ft | 356 kts | 14° |
| 2026-04-20 16:57 | 44.53960 | 42.99318 | 15984 ft | 362 kts | 14° |
| 2026-04-20 16:57 | 44.56390 | 43.00355 | 16850 ft | 368 kts | 14° |
| 2026-04-20 16:58 | 44.58863 | 43.01408 | 17722 ft | 374 kts | 13° |
| 2026-04-20 16:58 | 44.61316 | 43.02675 | 18493 ft | 381 kts | 22° |
| 2026-04-20 16:58 | 44.63691 | 43.04454 | 19236 ft | 390 kts | 27° |
| 2026-04-20 16:58 | 44.66029 | 43.06441 | 20054 ft | 396 kts | 29° |
| 2026-04-20 16:59 | 44.68390 | 43.08494 | 20827 ft | 402 kts | 29° |
| 2026-04-20 16:59 | 44.70790 | 43.10554 | 21589 ft | 407 kts | 28° |
| 2026-04-20 16:59 | 44.73239 | 43.12615 | 22303 ft | 413 kts | 28° |
| 2026-04-20 16:59 | 44.75733 | 43.14684 | 23010 ft | 419 kts | 28° |
| 2026-04-20 17:00 | 44.80810 | 43.18847 | 24380 ft | 430 kts | 27° |
| 2026-04-20 17:00 | 44.83414 | 43.20974 | 25017 ft | 436 kts | 27° |
| 2026-04-20 17:00 | 44.86050 | 43.23130 | 25648 ft | 441 kts | 27° |
| 2026-04-20 17:01 | 44.88728 | 43.25326 | 26254 ft | 447 kts | 27° |
| 2026-04-20 17:01 | 44.91437 | 43.27550 | 26837 ft | 453 kts | 28° |
| 2026-04-20 17:01 | 44.94181 | 43.29805 | 27308 ft | 462 kts | 28° |
| 2026-04-20 17:01 | 44.97015 | 43.32133 | 27406 ft | 479 kts | 28° |
| 2026-04-20 17:02 | 44.99948 | 43.34540 | 27511 ft | 494 kts | 28° |
| 2026-04-20 17:02 | 45.02971 | 43.37000 | 27646 ft | 508 kts | 27° |
| 2026-04-20 17:02 | 45.06120 | 43.39360 | 27854 ft | 516 kts | 22° |
| 2026-04-20 17:02 | 45.09456 | 43.41286 | 28167 ft | 520 kts | 17° |
| 2026-04-20 17:03 | 45.12866 | 43.42800 | 28565 ft | 521 kts | 11° |
| 2026-04-20 17:03 | 45.16417 | 43.43873 | 28991 ft | 521 kts | 7° |
| 2026-04-20 17:03 | 45.19995 | 43.44807 | 29365 ft | 524 kts | 6° |
| 2026-04-20 17:03 | 45.23602 | 43.45731 | 29698 ft | 528 kts | 6° |
| 2026-04-20 17:04 | 45.27225 | 43.46677 | 30036 ft | 531 kts | 7° |
| 2026-04-20 17:04 | 45.30869 | 43.47660 | 30497 ft | 530 kts | 7° |
| 2026-04-20 17:04 | 45.34487 | 43.48663 | 31029 ft | 528 kts | 7° |
| 2026-04-20 17:04 | 45.38080 | 43.49668 | 31566 ft | 525 kts | 7° |
| 2026-04-20 17:05 | 45.41665 | 43.50667 | 32080 ft | 524 kts | 7° |
| 2026-04-20 17:05 | 45.45237 | 43.51660 | 32556 ft | 522 kts | 7° |
| 2026-04-20 17:05 | 45.48796 | 43.52651 | 33004 ft | 520 kts | 7° |
| 2026-04-20 17:05 | 45.52349 | 43.53642 | 33432 ft | 519 kts | 7° |
| 2026-04-20 17:06 | 45.55837 | 43.54619 | 33850 ft | 517 kts | 7° |
| 2026-04-20 17:06 | 45.59364 | 43.55610 | 34265 ft | 516 kts | 7° |
| 2026-04-20 17:06 | 45.62929 | 43.56613 | 34619 ft | 516 kts | 7° |
| 2026-04-20 17:06 | 45.66407 | 43.57595 | 34952 ft | 516 kts | 7° |
| 2026-04-20 17:07 | 45.69929 | 43.58587 | 35266 ft | 516 kts | 7° |
| 2026-04-20 17:07 | 45.73458 | 43.59582 | 35587 ft | 516 kts | 7° |
| 2026-04-20 17:07 | 45.76981 | 43.60580 | 35891 ft | 516 kts | 7° |
| 2026-04-20 17:07 | 45.80506 | 43.61576 | 36150 ft | 517 kts | 7° |
| 2026-04-20 17:08 | 45.84042 | 43.62575 | 36416 ft | 517 kts | 7° |
| 2026-04-20 17:08 | 45.87580 | 43.63579 | 36696 ft | 518 kts | 8° |
| 2026-04-20 17:08 | 45.91108 | 43.64582 | 36965 ft | 517 kts | 8° |
| 2026-04-20 17:09 | 45.98204 | 43.66600 | 37007 ft | 522 kts | 8° |
| 2026-04-20 17:09 | 46.05318 | 43.68753 | 37009 ft | 528 kts | 9° |
| 2026-04-20 17:10 | 46.12516 | 43.71191 | 37006 ft | 532 kts | 10° |
| 2026-04-20 17:10 | 46.19743 | 43.73650 | 37003 ft | 534 kts | 10° |
| 2026-04-20 17:11 | 46.27000 | 43.76083 | 37001 ft | 534 kts | 10° |
| 2026-04-20 17:11 | 46.34224 | 43.78503 | 36982 ft | 529 kts | 10° |
| 2026-04-20 17:12 | 46.41342 | 43.80887 | 36994 ft | 527 kts | 10° |
| 2026-04-20 17:12 | 46.48476 | 43.83284 | 36993 ft | 527 kts | 10° |
| 2026-04-20 17:13 | 46.55612 | 43.85702 | 36991 ft | 526 kts | 10° |
| 2026-04-20 17:13 | 46.62742 | 43.88151 | 36989 ft | 527 kts | 10° |
| 2026-04-20 17:14 | 46.69891 | 43.90613 | 36991 ft | 527 kts | 10° |
| 2026-04-20 17:14 | 46.77036 | 43.93081 | 36991 ft | 528 kts | 10° |
| 2026-04-20 17:15 | 46.84198 | 43.95556 | 36991 ft | 529 kts | 10° |
| 2026-04-20 17:15 | 46.91370 | 43.98042 | 36992 ft | 529 kts | 10° |
| 2026-04-20 17:16 | 46.98499 | 44.00520 | 36993 ft | 530 kts | 10° |
| 2026-04-20 17:16 | 47.05677 | 44.03019 | 36990 ft | 530 kts | 10° |
| 2026-04-20 17:17 | 47.12865 | 44.05528 | 36995 ft | 531 kts | 10° |
| 2026-04-20 17:17 | 47.20053 | 44.08047 | 36988 ft | 531 kts | 10° |
| 2026-04-20 17:18 | 47.27244 | 44.10571 | 36985 ft | 531 kts | 10° |
| 2026-04-20 17:18 | 47.34437 | 44.13105 | 36981 ft | 531 kts | 10° |
| 2026-04-20 17:19 | 47.41579 | 44.15630 | 36975 ft | 531 kts | 10° |
| 2026-04-20 17:19 | 47.48763 | 44.18170 | 36986 ft | 530 kts | 10° |
| 2026-04-20 17:20 | 47.55949 | 44.20724 | 36976 ft | 531 kts | 10° |
| 2026-04-20 17:20 | 47.63128 | 44.23282 | 36969 ft | 530 kts | 10° |
| 2026-04-20 17:21 | 47.70313 | 44.25846 | 36970 ft | 530 kts | 10° |
| 2026-04-20 17:21 | 47.77479 | 44.28416 | 36962 ft | 529 kts | 10° |
| 2026-04-20 17:22 | 47.84590 | 44.30967 | 36962 ft | 529 kts | 10° |
| 2026-04-20 17:22 | 47.91753 | 44.33547 | 36958 ft | 529 kts | 11° |
| 2026-04-20 17:23 | 47.98842 | 44.36653 | 36945 ft | 531 kts | 15° |
| 2026-04-20 17:23 | 48.05858 | 44.40111 | 36943 ft | 531 kts | 15° |
| 2026-04-20 17:24 | 48.12873 | 44.43568 | 36945 ft | 531 kts | 15° |
| 2026-04-20 17:24 | 48.19907 | 44.46984 | 36944 ft | 531 kts | 15° |
| 2026-04-20 17:25 | 48.26944 | 44.50394 | 36943 ft | 531 kts | 15° |
| 2026-04-20 17:25 | 48.33938 | 44.53795 | 36941 ft | 532 kts | 15° |
| 2026-04-20 17:26 | 48.40982 | 44.57236 | 36946 ft | 532 kts | 15° |
| 2026-04-20 17:26 | 48.48027 | 44.60692 | 36944 ft | 532 kts | 15° |
| 2026-04-20 17:27 | 48.55081 | 44.64172 | 36946 ft | 533 kts | 15° |
| 2026-04-20 17:27 | 48.62121 | 44.67705 | 36944 ft | 534 kts | 15° |
| 2026-04-20 17:28 | 48.69127 | 44.71198 | 36943 ft | 534 kts | 15° |
| 2026-04-20 17:28 | 48.75017 | 44.74100 | 36937 ft | 534 kts | 15° |
| 2026-04-20 17:29 | 48.83300 | 44.78196 | 36934 ft | 534 kts | 15° |
| 2026-04-20 17:29 | 48.90416 | 44.81427 | 36937 ft | 533 kts | 12° |
| 2026-04-20 17:30 | 48.97530 | 44.84300 | 36935 ft | 533 kts | 12° |
| 2026-04-20 17:30 | 49.03545 | 44.86751 | 36936 ft | 533 kts | 12° |
| 2026-04-20 17:31 | 49.11844 | 44.90235 | 36933 ft | 533 kts | 13° |
| 2026-04-20 17:31 | 49.17842 | 44.92788 | 36935 ft | 533 kts | 13° |
| 2026-04-20 17:32 | 49.24984 | 44.95837 | 36935 ft | 533 kts | 13° |
| 2026-04-20 17:32 | 49.32096 | 44.98871 | 36935 ft | 534 kts | 13° |
| 2026-04-20 17:33 | 49.39251 | 45.01930 | 36913 ft | 534 kts | 13° |
| 2026-04-20 17:33 | 49.46433 | 45.05016 | 36929 ft | 534 kts | 13° |
| 2026-04-20 17:34 | 49.53595 | 45.08103 | 36923 ft | 534 kts | 13° |
| 2026-04-20 17:34 | 49.60761 | 45.11194 | 36908 ft | 535 kts | 13° |
| 2026-04-20 17:35 | 49.67923 | 45.14299 | 36918 ft | 534 kts | 13° |
| 2026-04-20 17:35 | 49.75032 | 45.17403 | 36902 ft | 535 kts | 13° |
| 2026-04-20 17:36 | 49.82187 | 45.20546 | 36914 ft | 535 kts | 13° |
| 2026-04-20 17:36 | 49.89349 | 45.23699 | 36893 ft | 535 kts | 13° |
| 2026-04-20 17:37 | 49.96522 | 45.26862 | 36885 ft | 534 kts | 13° |
| 2026-04-20 17:37 | 50.03659 | 45.29912 | 36873 ft | 533 kts | 11° |
| 2026-04-20 17:38 | 50.10866 | 45.32400 | 36868 ft | 531 kts | 9° |
| 2026-04-20 17:38 | 50.17995 | 45.34733 | 36860 ft | 531 kts | 9° |
| 2026-04-20 17:39 | 50.25237 | 45.37165 | 36856 ft | 532 kts | 9° |
| 2026-04-20 17:39 | 50.32476 | 45.39646 | 36853 ft | 532 kts | 9° |
| 2026-04-20 17:40 | 50.39715 | 45.42136 | 36846 ft | 532 kts | 9° |
| 2026-04-20 17:40 | 50.46895 | 45.44612 | 36833 ft | 532 kts | 9° |
| 2026-04-20 17:41 | 50.54119 | 45.47109 | 36816 ft | 532 kts | 9° |
| 2026-04-20 17:41 | 50.61347 | 45.49618 | 36822 ft | 531 kts | 10° |
| 2026-04-20 17:42 | 50.68578 | 45.52133 | 36813 ft | 532 kts | 10° |
| 2026-04-20 17:42 | 50.75806 | 45.54657 | 36809 ft | 532 kts | 10° |
| 2026-04-20 17:43 | 50.82994 | 45.57188 | 36806 ft | 532 kts | 10° |
| 2026-04-20 17:43 | 50.90219 | 45.59776 | 36800 ft | 532 kts | 10° |
| 2026-04-20 17:44 | 50.97433 | 45.62363 | 36794 ft | 531 kts | 10° |
| 2026-04-20 17:44 | 51.04571 | 45.65491 | 36784 ft | 533 kts | 19° |
| 2026-04-20 17:45 | 51.10208 | 45.69476 | 36791 ft | 534 kts | 24° |
| 2026-04-20 17:45 | 51.18023 | 45.75516 | 36786 ft | 534 kts | 24° |
| 2026-04-20 17:46 | 51.24718 | 45.80624 | 36782 ft | 533 kts | 24° |
| 2026-04-20 17:46 | 51.31425 | 45.85683 | 36775 ft | 533 kts | 24° |
| 2026-04-20 17:47 | 51.38093 | 45.90725 | 36776 ft | 532 kts | 24° |
| 2026-04-20 17:47 | 51.44787 | 45.95810 | 36777 ft | 532 kts | 24° |
| 2026-04-20 17:48 | 51.51472 | 46.00903 | 36781 ft | 531 kts | 25° |
| 2026-04-20 17:48 | 51.57857 | 46.06871 | 36777 ft | 531 kts | 35° |
| 2026-04-20 17:49 | 51.63543 | 46.14446 | 36785 ft | 531 kts | 41° |
| 2026-04-20 17:49 | 51.69063 | 46.22356 | 36775 ft | 531 kts | 41° |
| 2026-04-20 17:50 | 51.74624 | 46.30186 | 36776 ft | 531 kts | 41° |
| 2026-04-20 17:50 | 51.80184 | 46.38053 | 36777 ft | 531 kts | 44° |
| 2026-04-20 17:51 | 51.85057 | 46.46910 | 36778 ft | 530 kts | 53° |
| 2026-04-20 17:51 | 51.89517 | 46.56435 | 36778 ft | 531 kts | 53° |
| 2026-04-20 17:52 | 51.94052 | 46.65892 | 36769 ft | 532 kts | 53° |
| 2026-04-20 17:52 | 51.98588 | 46.75379 | 36766 ft | 532 kts | 53° |
| 2026-04-20 17:53 | 52.03107 | 46.84918 | 36771 ft | 532 kts | 53° |
| 2026-04-20 17:53 | 52.07617 | 46.94470 | 36766 ft | 532 kts | 53° |
| 2026-04-20 17:54 | 52.12114 | 47.04022 | 36759 ft | 531 kts | 53° |
| 2026-04-20 17:54 | 52.16580 | 47.13534 | 36758 ft | 531 kts | 54° |
| 2026-04-20 17:55 | 52.21066 | 47.23120 | 36749 ft | 531 kts | 54° |
| 2026-04-20 17:55 | 52.25547 | 47.32731 | 36751 ft | 532 kts | 54° |
| 2026-04-20 17:56 | 52.30026 | 47.42374 | 36744 ft | 532 kts | 54° |
| 2026-04-20 17:56 | 52.34492 | 47.52020 | 36740 ft | 532 kts | 54° |
| 2026-04-20 17:57 | 52.38937 | 47.61646 | 36740 ft | 533 kts | 54° |
| 2026-04-20 17:57 | 52.43408 | 47.71363 | 36728 ft | 534 kts | 54° |
| 2026-04-20 17:58 | 52.47871 | 47.81102 | 36730 ft | 534 kts | 54° |
| 2026-04-20 17:58 | 52.52326 | 47.90864 | 36729 ft | 534 kts | 54° |
| 2026-04-20 17:59 | 52.56771 | 48.00646 | 36717 ft | 534 kts | 54° |
| 2026-04-20 17:59 | 52.61213 | 48.10448 | 36720 ft | 534 kts | 54° |
| 2026-04-20 18:00 | 52.65647 | 48.20276 | 36711 ft | 534 kts | 55° |
| 2026-04-20 18:00 | 52.70039 | 48.30050 | 36711 ft | 533 kts | 55° |
| 2026-04-20 18:01 | 52.74450 | 48.39913 | 36701 ft | 533 kts | 55° |
| 2026-04-20 18:01 | 52.78853 | 48.49781 | 36684 ft | 534 kts | 55° |
| 2026-04-20 18:02 | 52.83250 | 48.59680 | 36670 ft | 534 kts | 55° |
| 2026-04-20 18:02 | 52.87630 | 48.69580 | 36664 ft | 532 kts | 56° |
| 2026-04-20 18:03 | 52.91968 | 48.79425 | 36681 ft | 532 kts | 56° |
| 2026-04-20 18:03 | 52.96320 | 48.89355 | 36661 ft | 531 kts | 56° |
| 2026-04-20 18:04 | 53.00643 | 48.99311 | 36655 ft | 531 kts | 56° |
| 2026-04-20 18:04 | 53.04958 | 49.09287 | 36650 ft | 531 kts | 56° |
| 2026-04-20 18:05 | 53.11411 | 49.24246 | 36643 ft | 530 kts | 56° |
| 2026-04-20 18:05 | 53.15686 | 49.34165 | 36648 ft | 530 kts | 56° |
| 2026-04-20 18:06 | 53.19984 | 49.44176 | 36648 ft | 530 kts | 56° |
| 2026-04-20 18:06 | 53.24277 | 49.54226 | 36636 ft | 530 kts | 57° |
| 2026-04-20 18:07 | 53.28554 | 49.64281 | 36641 ft | 531 kts | 57° |
| 2026-04-20 18:07 | 53.32801 | 49.74295 | 36639 ft | 531 kts | 57° |
| 2026-04-20 18:08 | 53.37069 | 49.84406 | 36637 ft | 531 kts | 57° |
| 2026-04-20 18:08 | 53.41325 | 49.94527 | 36641 ft | 531 kts | 57° |
| 2026-04-20 18:09 | 53.45565 | 50.04658 | 36639 ft | 530 kts | 57° |
| 2026-04-20 18:09 | 53.49809 | 50.14828 | 36638 ft | 531 kts | 57° |
| 2026-04-20 18:10 | 53.53999 | 50.24937 | 36637 ft | 530 kts | 57° |
| 2026-04-20 18:10 | 53.58200 | 50.35151 | 36636 ft | 529 kts | 57° |
| 2026-04-20 18:11 | 53.62383 | 50.45352 | 36640 ft | 529 kts | 57° |
| 2026-04-20 18:11 | 53.66546 | 50.55556 | 36638 ft | 528 kts | 57° |
| 2026-04-20 18:12 | 53.70709 | 50.65789 | 36638 ft | 528 kts | 57° |
| 2026-04-20 18:12 | 53.74837 | 50.75978 | 36637 ft | 529 kts | 57° |
| 2026-04-20 18:13 | 53.78988 | 50.86269 | 36636 ft | 529 kts | 57° |
| 2026-04-20 18:13 | 53.83129 | 50.96581 | 36639 ft | 529 kts | 57° |
| 2026-04-20 18:14 | 53.87273 | 51.06937 | 36637 ft | 530 kts | 58° |
| 2026-04-20 18:14 | 53.90710 | 51.15561 | 36642 ft | 530 kts | 58° |
| 2026-04-20 18:15 | 53.95504 | 51.27638 | 36648 ft | 531 kts | 58° |
| 2026-04-20 18:15 | 53.99626 | 51.38065 | 36649 ft | 531 kts | 58° |
| 2026-04-20 18:16 | 54.03214 | 51.46571 | 36653 ft | 532 kts | 53° |
| 2026-04-20 18:16 | 54.07847 | 51.56398 | 36649 ft | 532 kts | 52° |
| 2026-04-20 18:17 | 54.12512 | 51.66198 | 36646 ft | 532 kts | 52° |
| 2026-04-20 18:17 | 54.17120 | 51.76090 | 36648 ft | 532 kts | 53° |
| 2026-04-20 18:18 | 54.21692 | 51.86037 | 36651 ft | 531 kts | 53° |
| 2026-04-20 18:18 | 54.26216 | 51.95924 | 36656 ft | 531 kts | 53° |
| 2026-04-20 18:19 | 54.30768 | 52.05892 | 36654 ft | 531 kts | 53° |
| 2026-04-20 18:19 | 54.35308 | 52.15870 | 36662 ft | 530 kts | 53° |
| 2026-04-20 18:20 | 54.39841 | 52.25871 | 36682 ft | 531 kts | 53° |
| 2026-04-20 18:20 | 54.44363 | 52.35892 | 36681 ft | 531 kts | 54° |
| 2026-04-20 18:21 | 54.48871 | 52.45951 | 36683 ft | 531 kts | 54° |
| 2026-04-20 18:21 | 54.53373 | 52.56038 | 36687 ft | 531 kts | 54° |
| 2026-04-20 18:22 | 54.57838 | 52.66075 | 36689 ft | 531 kts | 54° |
| 2026-04-20 18:22 | 54.62323 | 52.76195 | 36686 ft | 530 kts | 54° |
| 2026-04-20 18:23 | 54.66339 | 52.86815 | 36684 ft | 528 kts | 63° |
| 2026-04-20 18:23 | 54.69851 | 52.97970 | 36695 ft | 527 kts | 64° |
| 2026-04-20 18:24 | 54.73342 | 53.09068 | 36691 ft | 527 kts | 63° |
| 2026-04-20 18:24 | 54.76888 | 53.20192 | 36661 ft | 528 kts | 63° |
| 2026-04-20 18:25 | 54.80436 | 53.31343 | 36669 ft | 528 kts | 63° |
| 2026-04-20 18:25 | 54.83962 | 53.42525 | 36685 ft | 528 kts | 63° |
| 2026-04-20 18:26 | 54.87465 | 53.53732 | 36691 ft | 528 kts | 63° |
| 2026-04-20 18:26 | 54.90964 | 53.64963 | 36678 ft | 528 kts | 63° |
| 2026-04-20 18:27 | 54.94436 | 53.76152 | 36690 ft | 529 kts | 63° |
| 2026-04-20 18:27 | 54.97925 | 53.87450 | 36690 ft | 528 kts | 64° |
| 2026-04-20 18:28 | 55.01391 | 53.98729 | 36687 ft | 528 kts | 64° |
| 2026-04-20 18:28 | 55.04846 | 54.10028 | 36684 ft | 528 kts | 64° |
| 2026-04-20 18:29 | 55.08294 | 54.21354 | 36695 ft | 528 kts | 64° |
| 2026-04-20 18:29 | 55.11733 | 54.32697 | 36696 ft | 528 kts | 64° |
| 2026-04-20 18:30 | 55.15135 | 54.43982 | 36693 ft | 528 kts | 64° |
| 2026-04-20 18:30 | 55.18554 | 54.55367 | 36690 ft | 528 kts | 64° |
| 2026-04-20 18:31 | 55.21971 | 54.66787 | 36691 ft | 528 kts | 64° |
| 2026-04-20 18:31 | 55.25364 | 54.78166 | 36690 ft | 529 kts | 64° |
| 2026-04-20 18:32 | 55.28760 | 54.89604 | 36694 ft | 528 kts | 64° |
| 2026-04-20 18:32 | 55.32149 | 55.01067 | 36702 ft | 528 kts | 64° |
| 2026-04-20 18:33 | 55.35528 | 55.12549 | 36705 ft | 529 kts | 64° |
| 2026-04-20 18:33 | 55.38896 | 55.24050 | 36708 ft | 529 kts | 64° |
| 2026-04-20 18:34 | 55.42258 | 55.35600 | 36703 ft | 530 kts | 65° |
| 2026-04-20 18:34 | 55.45585 | 55.47096 | 36703 ft | 530 kts | 65° |
| 2026-04-20 18:35 | 55.48924 | 55.58694 | 36703 ft | 530 kts | 65° |
| 2026-04-20 18:35 | 55.52254 | 55.70315 | 36710 ft | 530 kts | 65° |
| 2026-04-20 18:36 | 55.55568 | 55.81935 | 36713 ft | 530 kts | 65° |
| 2026-04-20 18:36 | 55.58872 | 55.93583 | 36711 ft | 530 kts | 65° |
| 2026-04-20 18:37 | 55.62146 | 56.05181 | 36721 ft | 530 kts | 65° |
| 2026-04-20 18:37 | 55.65426 | 56.16857 | 36724 ft | 529 kts | 65° |
| 2026-04-20 18:38 | 55.68697 | 56.28562 | 36727 ft | 529 kts | 65° |
| 2026-04-20 18:38 | 55.71951 | 56.40269 | 36751 ft | 529 kts | 65° |
| 2026-04-20 18:39 | 55.75202 | 56.52024 | 36766 ft | 530 kts | 65° |
| 2026-04-20 18:39 | 55.78420 | 56.63716 | 36775 ft | 530 kts | 65° |
| 2026-04-20 18:40 | 55.81648 | 56.75498 | 36780 ft | 531 kts | 65° |
| 2026-04-20 18:40 | 55.84849 | 56.87212 | 36776 ft | 513 kts | 65° |
| 2026-04-20 18:41 | 55.87922 | 56.98480 | 36789 ft | 503 kts | 65° |
| 2026-04-20 18:41 | 55.90951 | 57.09665 | 36783 ft | 493 kts | 65° |
| 2026-04-20 18:42 | 55.92417 | 57.15096 | 36787 ft | 481 kts | 66° |
| 2026-04-20 18:42 | 55.93862 | 57.20462 | 36801 ft | 478 kts | 66° |
| 2026-04-20 18:42 | 55.96710 | 57.31073 | 36806 ft | 477 kts | 66° |
| 2026-04-20 18:43 | 55.98136 | 57.36425 | 36447 ft | 477 kts | 66° |
| 2026-04-20 18:43 | 55.99554 | 57.41775 | 35835 ft | 478 kts | 66° |
| 2026-04-20 18:43 | 56.00995 | 57.47243 | 34501 ft | 495 kts | 66° |
| 2026-04-20 18:43 | 56.02491 | 57.52935 | 33035 ft | 515 kts | 66° |
| 2026-04-20 18:44 | 56.04034 | 57.58818 | 31894 ft | 525 kts | 66° |
| 2026-04-20 18:44 | 56.05591 | 57.64746 | 30994 ft | 526 kts | 66° |
| 2026-04-20 18:44 | 56.07137 | 57.70641 | 30404 ft | 519 kts | 65° |
| 2026-04-20 18:44 | 56.08635 | 57.76370 | 29915 ft | 511 kts | 65° |
| 2026-04-20 18:45 | 56.10126 | 57.82099 | 29417 ft | 503 kts | 66° |
| 2026-04-20 18:45 | 56.11598 | 57.87765 | 28828 ft | 498 kts | 65° |
| 2026-04-20 18:45 | 56.13056 | 57.93389 | 28178 ft | 495 kts | 66° |
| 2026-04-20 18:45 | 56.14503 | 57.98975 | 27560 ft | 491 kts | 65° |
| 2026-04-20 18:46 | 56.15934 | 58.04502 | 26986 ft | 486 kts | 65° |
| 2026-04-20 18:46 | 56.17274 | 58.09678 | 26655 ft | 458 kts | 65° |
| 2026-04-20 18:46 | 56.18576 | 58.14722 | 26071 ft | 435 kts | 65° |
| 2026-04-20 18:46 | 56.19812 | 58.19521 | 25231 ft | 422 kts | 65° |
| 2026-04-20 18:47 | 56.21029 | 58.24264 | 24190 ft | 416 kts | 65° |
| 2026-04-20 18:47 | 56.22233 | 58.28967 | 23106 ft | 411 kts | 65° |
| 2026-04-20 18:47 | 56.23417 | 58.33601 | 22100 ft | 404 kts | 65° |
| 2026-04-20 18:47 | 56.24577 | 58.38149 | 21141 ft | 396 kts | 65° |
| 2026-04-20 18:48 | 56.25712 | 58.42605 | 20195 ft | 389 kts | 65° |
| 2026-04-20 18:48 | 56.26827 | 58.46989 | 19258 ft | 381 kts | 65° |
| 2026-04-20 18:48 | 56.27918 | 58.51292 | 18308 ft | 374 kts | 65° |
| 2026-04-20 18:48 | 56.28988 | 58.55521 | 17372 ft | 370 kts | 65° |
| 2026-04-20 18:49 | 56.30062 | 58.59769 | 16818 ft | 373 kts | 65° |
| 2026-04-20 18:49 | 56.31131 | 58.64006 | 16554 ft | 367 kts | 65° |
| 2026-04-20 18:49 | 56.32174 | 58.68154 | 16309 ft | 361 kts | 65° |
| 2026-04-20 18:49 | 56.33204 | 58.72250 | 15978 ft | 358 kts | 65° |
| 2026-04-20 18:50 | 56.34231 | 58.76341 | 15587 ft | 356 kts | 65° |
| 2026-04-20 18:50 | 56.35242 | 58.80373 | 15235 ft | 354 kts | 65° |
| 2026-04-20 18:50 | 56.36251 | 58.84406 | 14895 ft | 352 kts | 66° |
| 2026-04-20 18:50 | 56.37251 | 58.88418 | 14552 ft | 349 kts | 66° |
| 2026-04-20 18:51 | 56.38244 | 58.92406 | 14211 ft | 347 kts | 66° |
| 2026-04-20 18:51 | 56.39226 | 58.96360 | 13867 ft | 344 kts | 66° |
| 2026-04-20 18:51 | 56.40201 | 59.00284 | 13587 ft | 340 kts | 66° |
| 2026-04-20 18:51 | 56.41161 | 59.04153 | 13456 ft | 335 kts | 66° |
| 2026-04-20 18:52 | 56.42118 | 59.08024 | 13337 ft | 338 kts | 66° |
| 2026-04-20 18:52 | 56.43082 | 59.11935 | 13232 ft | 342 kts | 67° |
| 2026-04-20 18:52 | 56.43982 | 59.15901 | 13095 ft | 340 kts | 70° |
| 2026-04-20 18:52 | 56.44814 | 59.19844 | 12955 ft | 331 kts | 70° |
| 2026-04-20 18:53 | 56.45606 | 59.23677 | 12811 ft | 321 kts | 71° |
| 2026-04-20 18:53 | 56.46379 | 59.27411 | 12637 ft | 316 kts | 71° |
| 2026-04-20 18:53 | 56.47165 | 59.31206 | 12206 ft | 329 kts | 71° |
| 2026-04-20 18:53 | 56.47981 | 59.35132 | 11819 ft | 348 kts | 71° |
| 2026-04-20 18:54 | 56.48826 | 59.39179 | 11460 ft | 339 kts | 71° |
| 2026-04-20 18:54 | 56.49649 | 59.43117 | 10817 ft | 330 kts | 71° |
| 2026-04-20 18:54 | 56.50445 | 59.46927 | 10271 ft | 316 kts | 71° |
| 2026-04-20 18:54 | 56.51203 | 59.50566 | 9772 ft | 304 kts | 72° |
| 2026-04-20 18:55 | 56.51944 | 59.54132 | 9503 ft | 299 kts | 72° |
| 2026-04-20 18:55 | 56.52670 | 59.57617 | 9328 ft | 292 kts | 72° |
| 2026-04-20 18:55 | 56.53380 | 59.61036 | 9066 ft | 288 kts | 72° |
| 2026-04-20 18:55 | 56.54078 | 59.64410 | 8862 ft | 282 kts | 73° |
| 2026-04-20 18:56 | 56.54760 | 59.67701 | 8667 ft | 276 kts | 72° |
| 2026-04-20 18:56 | 56.55429 | 59.70936 | 8393 ft | 273 kts | 73° |
| 2026-04-20 18:56 | 56.56090 | 59.74150 | 8078 ft | 271 kts | 73° |
| 2026-04-20 18:56 | 56.56746 | 59.77352 | 7764 ft | 270 kts | 73° |
| 2026-04-20 18:57 | 56.57392 | 59.80495 | 7467 ft | 269 kts | 73° |
| 2026-04-20 18:57 | 56.58041 | 59.83654 | 7234 ft | 265 kts | 73° |
| 2026-04-20 18:57 | 56.58674 | 59.86740 | 7084 ft | 258 kts | 73° |
| 2026-04-20 18:57 | 56.59293 | 59.89766 | 6867 ft | 254 kts | 73° |
| 2026-04-20 18:58 | 56.59904 | 59.92770 | 6564 ft | 253 kts | 73° |
| 2026-04-20 18:58 | 56.60514 | 59.95760 | 6269 ft | 252 kts | 73° |
| 2026-04-20 18:58 | 56.61119 | 59.98726 | 6065 ft | 247 kts | 73° |
| 2026-04-20 18:58 | 56.61708 | 60.01617 | 6010 ft | 242 kts | 73° |
| 2026-04-20 18:59 | 56.62298 | 60.04526 | 6002 ft | 249 kts | 72° |
| 2026-04-20 18:59 | 56.62948 | 60.07454 | 5883 ft | 251 kts | 70° |
| 2026-04-20 18:59 | 56.63628 | 60.10378 | 5619 ft | 250 kts | 70° |
| 2026-04-20 18:59 | 56.64300 | 60.13265 | 5404 ft | 245 kts | 69° |
| 2026-04-20 19:00 | 56.64951 | 60.16064 | 5166 ft | 242 kts | 69° |
| 2026-04-20 19:00 | 56.65609 | 60.18910 | 4894 ft | 239 kts | 69° |
| 2026-04-20 19:00 | 56.66240 | 60.21655 | 4652 ft | 237 kts | 69° |
| 2026-04-20 19:00 | 56.66874 | 60.24410 | 4430 ft | 234 kts | 68° |
| 2026-04-20 19:01 | 56.67498 | 60.27127 | 4168 ft | 232 kts | 68° |
| 2026-04-20 19:01 | 56.67902 | 60.28898 | 4096 ft | 225 kts | 68° |
| 2026-04-20 19:01 | 56.68496 | 60.31492 | 4093 ft | 221 kts | 68° |
| 2026-04-20 19:01 | 56.69094 | 60.34118 | 4107 ft | 227 kts | 68° |
| 2026-04-20 19:02 | 56.69899 | 60.36556 | 3972 ft | 225 kts | 52° |
| 2026-04-20 19:02 | 56.71277 | 60.39353 | 3652 ft | 222 kts | 49° |
| 2026-04-20 19:02 | 56.71974 | 60.40750 | 3482 ft | 220 kts | 50° |
| 2026-04-20 19:02 | 56.72989 | 60.42819 | 3245 ft | 217 kts | 50° |
| 2026-04-20 19:03 | 56.73979 | 60.44859 | 3095 ft | 210 kts | 50° |
| 2026-04-20 19:03 | 56.74837 | 60.46894 | 2999 ft | 195 kts | 67° |
| 2026-04-20 19:03 | 56.75056 | 60.49240 | 3012 ft | 189 kts | 86° |
| 2026-04-20 19:03 | 56.75110 | 60.51641 | 3041 ft | 192 kts | 85° |
| 2026-04-20 19:04 | 56.75144 | 60.54047 | 2994 ft | 187 kts | 88° |
| 2026-04-20 19:04 | 56.75092 | 60.56332 | 2981 ft | 174 kts | 91° |
| 2026-04-20 19:04 | 56.75009 | 60.58532 | 2848 ft | 173 kts | 91° |
| 2026-04-20 19:04 | 56.74922 | 60.60704 | 2620 ft | 173 kts | 91° |
| 2026-04-20 19:05 | 56.74834 | 60.62862 | 2382 ft | 167 kts | 91° |
| 2026-04-20 19:05 | 56.74753 | 60.64865 | 2194 ft | 152 kts | 91° |
| 2026-04-20 19:05 | 56.74678 | 60.66789 | 1980 ft | 149 kts | 91° |
| 2026-04-20 19:05 | 56.74604 | 60.68605 | 1787 ft | 139 kts | 91° |
| 2026-04-20 19:06 | 56.74535 | 60.70358 | 1623 ft | 140 kts | 91° |
| 2026-04-20 19:06 | 56.74466 | 60.72114 | 1419 ft | 138 kts | 91° |
| 2026-04-20 19:06 | 56.74394 | 60.73852 | 1251 ft | 138 kts | 91° |
| 2026-04-20 19:06 | 56.74324 | 60.75605 | 1058 ft | 139 kts | 91° |
| 2026-04-20 19:07 | 56.74254 | 60.77362 | 873 ft | 139 kts | 92° |
| 2026-04-20 19:07 | 56.74190 | 60.79103 | 780 ft | 129 kts | 95° |
| 2026-04-20 19:07 | 56.74140 | 60.80299 | 779 ft | 36 kts | 94° |
| 2026-04-20 19:07 | 56.74140 | 60.80516 | 779 ft | 10 kts | 64° |
| 2026-04-20 19:08 | 56.74201 | 60.80573 | 779 ft | 10 kts | 11° |
| 2026-04-20 19:08 | 56.74340 | 60.80609 | 779 ft | 10 kts | 7° |
| 2026-04-20 19:08 | 56.74410 | 60.80626 | 779 ft | 10 kts | 7° |
| 2026-04-20 19:09 | 56.74479 | 60.80644 | 779 ft | 10 kts | 7° |
| 2026-04-20 19:09 | 56.74549 | 60.80647 | 779 ft | 10 kts | 360° |
| 2026-04-20 19:09 | 56.74605 | 60.80646 | 779 ft | 6 kts | 360° |
| 2026-04-20 19:09 | 56.74651 | 60.80646 | 779 ft | 7 kts | 360° |
| 2026-04-20 19:10 | 56.74701 | 60.80645 | 779 ft | 8 kts | 360° |
| 2026-04-20 19:10 | 56.74751 | 60.80647 | 779 ft | 0 kts | 1° |
| 2026-04-20 19:10 | 56.74754 | 60.80647 | 779 ft | 1 kts | 1° |
| 2026-04-20 19:10 | 56.74757 | 60.80647 | 779 ft | 0 kts | 1° |
| 2026-04-20 19:11 | 56.74761 | 60.80648 | 779 ft | 1 kts | 1° |
| 2026-04-20 19:11 | 56.74775 | 60.80648 | 779 ft | 5 kts | 1° |
| 2026-04-20 19:12 | 56.74836 | 60.80638 | 779 ft | 10 kts | 335° |
| 2026-04-20 19:12 | 56.74856 | 60.80523 | 779 ft | 10 kts | 269° |
| 2026-04-20 19:12 | 56.74855 | 60.80393 | 779 ft | 10 kts | 269° |
| 2026-04-20 19:12 | 56.74852 | 60.80263 | 779 ft | 10 kts | 268° |
| 2026-04-20 19:13 | 56.74863 | 60.80147 | 779 ft | 8 kts | 310° |
| 2026-04-20 19:13 | 56.74897 | 60.80135 | 779 ft | 5 kts | 4° |
| 2026-04-20 19:13 | 56.74924 | 60.80134 | 779 ft | 0 kts | 359° |
| 2026-04-20 19:13 | 56.74931 | 60.80135 | 779 ft | 0 kts | 1° |